Home > Products > Valid Products > TAF

000
FTUS41 KCLE 241700 CCA
TAFCLE
TAF COR
KCLE 241735Z 2418/2524 06010KT P6SM BKN120
     FM241900 03011KT P6SM BKN120
     FM242200 VRB04KT P6SM SCT120 BKN250
     FM250200 12008KT P6SM SCT080 BKN120
     FM250800 12010KT P6SM SCT045 BKN080
     FM251200 15012KT 6SM -RA BR SCT012 OVC035
      TEMPO 2512/2514 4SM -RA BR OVC012
     FM251400 18012KT 4SM -RA BR OVC012
     FM251800 22012G18KT 6SM -RA BR OVC012
     FM252200 29018G28KT P6SM OVC020=



000
FTUS41 KCLE 241700 CCA
TAFFDY
TAF COR
KFDY 241734Z 2418/2518 10012G18KT P6SM SCT100 BKN250
     FM250600 10009KT P6SM BKN080
     FM250800 10007KT P6SM BKN045 OVC080
      TEMPO 2508/2510 5SM -RA BR OVC045
     FM251000 09006KT 5SM -RA SCT008 OVC025
     FM251300 30008KT 3SM -RA BR OVC008=



000
FTUS41 KCLE 241700
TAFERI
TAF
KERI 241720Z 2418/2518 32008KT P6SM SCT250
     FM242100 36006KT P6SM SCT250
     FM250000 06006KT P6SM BKN200
     FM250600 12010KT P6SM SCT100 BKN150
     FM251200 14014G20KT P6SM SCT045 OVC100
     FM251600 16016G24KT P6SM VCSH OVC045=



000
FTUS41 KCLE 241700
TAFCAK
TAF
KCAK 241720Z 2418/2518 10008KT P6SM BKN150
     FM250800 12010KT P6SM SCT045 BKN080
     FM251200 14014KT 6SM -RA BR SCT025 OVC050
      TEMPO 2512/2514 4SM -RA BR OVC025
     FM251400 16014G20KT 4SM -RA BR OVC012=



000
FTUS41 KCLE 241700
TAFMFD
TAF
KMFD 241720Z 2418/2518 09011KT P6SM SCT120
     FM242000 12011KT P6SM SCT120
     FM250600 14010KT P6SM SCT045 OVC120
     FM250900 14010KT P6SM BKN040 OVC100
      TEMPO 2509/2512 5SM -RA BR OVC040
     FM251400 16012KT 5SM -RA BR SCT012 OVC035
     FM251600 18014G22KT 3SM -RA BR OVC012=



000
FTUS41 KCLE 241700
TAFFDY
TAF
KFDY 241720Z 2418/2518 12012G18KT P6SM SCT100 BKN250
     FM250600 10009KT P6SM BKN080
     FM250800 10007KT P6SM BKN045 OVC080
      TEMPO 2508/2510 5SM -RA BR OVC045
     FM251000 09006KT 5SM -RA SCT008 OVC025
     FM251300 30008KT 3SM -RA BR OVC008=



000
FTUS41 KCLE 241700
TAFYNG
TAF
KYNG 241720Z 2418/2518 VRB03KT P6SM SCT150
     FM242100 06006KT P6SM SCT120 BKN250
     FM250000 09006KT P6SM BKN120
     FM250900 10010KT P6SM SCT045 BKN080
     FM251200 12014KT P6SM -RA SCT035 OVC080
      TEMPO 2512/2514 5SM -RA BR OVC035
     FM251500 16014G20KT 5SM -RA BR OVC025=



000
FTUS41 KCLE 241700
TAFTOL
TAF
KTOL 241720Z 2418/2518 10011G18KT P6SM SCT100 BKN250
      TEMPO 2418/2420 BKN100
     FM250000 10009KT P6SM BKN250
     FM250600 10009KT P6SM BKN080
     FM250900 10007KT P6SM BKN045 OVC080
      TEMPO 2509/2512 5SM -RA BR OVC045
     FM251200 09006KT 5SM -RA SCT012 OVC035
     FM251400 30008KT 3SM -RA BR OVC012=



000
FTUS41 KCLE 241700
TAFCLE
TAF
KCLE 241720Z 2418/2524 06010G16KT P6SM BKN120
     FM241900 03010G16KT P6SM BKN120
     FM242200 VRB04KT P6SM SCT120 BKN250
     FM250200 12008KT P6SM SCT080 BKN120
     FM250800 12010KT P6SM SCT045 BKN080
     FM251200 15012KT 6SM -RA BR SCT012 OVC035
      TEMPO 2512/2514 4SM -RA BR OVC012
     FM251400 18012KT 4SM -RA BR OVC012
     FM251800 22012G18KT 6SM -RA BR OVC012
     FM252200 29018G28KT P6SM OVC020=



000
FTUS41 KCLE 241400 AAA
TAFCLE
TAF AMD
KCLE 241452Z 2415/2518 12005KT P6SM OVC120
     FM242100 03010KT P6SM BKN080 OVC120
     FM250200 12008KT P6SM SCT100 OVC200=



000
FTUS41 KCLE 241100
TAFMFD
TAF
KMFD 241137Z 2412/2512 10003KT P6SM SCT150 OVC200
     FM241400 12010KT P6SM BKN080 OVC150=



000
FTUS41 KCLE 241100
TAFTOL
TAF
KTOL 241137Z 2412/2512 10004KT P6SM BKN080 OVC150
     FM241700 12010G18KT P6SM OVC080
     FM242300 10010KT P6SM BKN120 OVC250
     FM251000 10007KT 5SM -SHRA OVC050=



000
FTUS41 KCLE 241100
TAFERI
TAF
KERI 241137Z 2412/2512 VRB04KT P6SM FEW150 BKN200
     FM241400 34008KT P6SM SCT080 OVC150
     FM242200 06006KT P6SM BKN080 OVC150
     FM250300 13010G18KT P6SM SCT100 OVC200=



000
FTUS41 KCLE 241100
TAFFDY
TAF
KFDY 241137Z 2412/2512 10006KT P6SM BKN080 OVC150
     FM241700 12010G18KT P6SM OVC080
     FM242300 11010KT P6SM BKN120 OVC250
     FM251100 12012KT 5SM -SHRA OVC050=



000
FTUS41 KCLE 241100
TAFYNG
TAF
KYNG 241137Z 2412/2512 VRB03KT P6SM FEW150 BKN200
     FM241600 05006KT P6SM BKN080 OVC150
     FM250100 10008KT P6SM BKN080 OVC150=



000
FTUS41 KCLE 241100
TAFCAK
TAF
KCAK 241137Z 2412/2512 VRB03KT P6SM SCT150 OVC200
     FM241500 09008KT P6SM BKN080 OVC150=



000
FTUS41 KCLE 241100
TAFCLE
TAF
KCLE 241137Z 2412/2518 VRB03KT P6SM SCT150 OVC200
     FM241500 07008KT P6SM BKN080 OVC150
     FM242100 03010KT P6SM BKN080 OVC150
     FM250200 12008KT P6SM SCT100 OVC200=



000
FTUS41 KCLE 240800 AAA
TAFCLE
TAF AMD
KCLE 240852Z 2409/2512 VRB03KT P6SM SCT150 OVC200
     FM241500 07008KT P6SM BKN080 OVC150
     FM242100 03010KT P6SM BKN080 OVC150
     FM250200 12008KT P6SM SCT100 OVC200=



000
FTUS41 KCLE 240500
TAFTOL
TAF
KTOL 240528Z 2406/2506 10004KT P6SM BKN080 OVC150
     FM241700 12010G18KT P6SM OVC080
     FM242300 10010KT P6SM BKN120 OVC250=



000
FTUS41 KCLE 240500
TAFFDY
TAF
KFDY 240528Z 2406/2506 10006KT P6SM BKN080 OVC150
     FM241700 12010G18KT P6SM OVC080
     FM242300 11010KT P6SM BKN120 OVC250=



000
FTUS41 KCLE 240500
TAFCAK
TAF
KCAK 240528Z 2406/2506 VRB03KT P6SM SCT150 OVC200
     FM241500 09008KT P6SM BKN080 OVC150=



000
FTUS41 KCLE 240500
TAFMFD
TAF
KMFD 240528Z 2406/2506 10003KT P6SM SCT150 OVC200
     FM241400 12010KT P6SM BKN080 OVC150=



000
FTUS41 KCLE 240500
TAFCLE
TAF
KCLE 240528Z 2406/2512 VRB03KT P6SM SCT150 OVC200
     FM241500 07008KT P6SM BKN080 OVC150
     FM242100 03010KT P6SM BKN080 OVC150
     FM250200 12008KT P6SM SCT100 OVC200=



000
FTUS41 KCLE 240500
TAFERI
TAF
KERI 240528Z 2406/2506 VRB04KT P6SM FEW150 BKN200
     FM241400 34008KT P6SM SCT080 OVC150
     FM242200 06006KT P6SM BKN080 OVC150
     FM250300 13010G18KT P6SM SCT100 OVC200=



000
FTUS41 KCLE 240500
TAFYNG
TAF
KYNG 240528Z 2406/2506 VRB03KT P6SM FEW150 BKN200
     FM241600 05006KT P6SM BKN080 OVC150
     FM250100 10008KT P6SM BKN080 OVC150=



000
FTUS41 KCLE 240200 AAA
TAFCLE
TAF AMD
KCLE 240252Z 2403/2506 VRB03KT P6SM SCT250
     FM241400 09008KT P6SM BKN250
     FM241900 05010KT P6SM BKN150=



000
FTUS41 KCLE 232300
TAFCLE
TAF
KCLE 232323Z 2400/2506 35008KT P6SM SKC
     FM240100 VRB03KT P6SM SKC
     FM241400 09008KT P6SM BKN250
     FM241900 05010KT P6SM BKN150=



000
FTUS41 KCLE 232300
TAFCAK
TAF
KCAK 232323Z 2400/2424 34006KT P6SM SKC
     FM240100 VRB03KT P6SM SKC
     FM241400 08008KT P6SM BKN250=



000
FTUS41 KCLE 232300
TAFYNG
TAF
KYNG 232323Z 2400/2424 32010KT P6SM SKC
     FM240200 VRB03KT P6SM SKC
     FM241500 04008KT P6SM BKN250=



000
FTUS41 KCLE 232300
TAFMFD
TAF
KMFD 232323Z 2400/2424 36008KT P6SM SKC
     FM240100 VRB03KT P6SM SKC
     FM241400 12010KT P6SM BKN250=



000
FTUS41 KCLE 232300
TAFFDY
TAF
KFDY 232323Z 2400/2424 01006KT P6SM SKC
     FM240100 VRB03KT P6SM SKC
     FM241400 11008KT P6SM BKN150=



000
FTUS41 KCLE 232300
TAFERI
TAF
KERI 232323Z 2400/2424 29010KT P6SM SKC
     FM240200 VRB04KT P6SM SKC
     FM241400 34006KT P6SM SCT250
     FM241800 03010KT P6SM BKN250=



000
FTUS41 KCLE 232300
TAFTOL
TAF
KTOL 232323Z 2400/2424 35008KT P6SM SKC
     FM240100 VRB03KT P6SM SKC
     FM241400 11008KT P6SM BKN150=



000
FTUS41 KCLE 232100 AAB
TAFYNG
TAF AMD
KYNG 232111Z 2321/2418 33012G20KT P6SM SCT030
     FM240000 VRB03KT P6SM SKC
     FM241500 02007KT P6SM SCT250=



000
FTUS41 KCLE 232000 AAA
TAFCLE
TAF AMD
KCLE 232054Z 2321/2424 34010KT P6SM FEW035
     FM240000 VRB03KT P6SM SKC
     FM241500 02007KT P6SM SCT250=



000
FTUS41 KCLE 231900 AAA
TAFYNG
TAF AMD
KYNG 231945Z 2320/2418 29011G18KT P6SM OVC028
     FM232200 33011KT P6SM SCT030
      TEMPO 2322/2324 BKN030
     FM240000 VRB03KT P6SM SKC
     FM241500 02007KT P6SM SCT250=



000
FTUS41 KCLE 231900 AAA
TAFTOL
TAF AMD
KTOL 231944Z 2320/2418 36008KT P6SM SKC
     FM240000 VRB03KT P6SM SKC
     FM241400 12008KT P6SM SCT100 BKN250=



000
FTUS41 KCLE 231900 AAA
TAFMFD
TAF AMD
KMFD 231944Z 2320/2418 31008KT P6SM OVC030
     FM232200 33009KT P6SM SKC
     FM240000 VRB03KT P6SM SKC
     FM241400 14010KT P6SM SCT250=



000
FTUS41 KCLE 231700
TAFERI
TAF
KERI 231722Z 2318/2418 28012G18KT P6SM SCT025
      TEMPO 2318/2319 BKN025
     FM232000 28012G16KT P6SM SKC
     FM240000 32004KT P6SM SKC
     FM241500 32006KT P6SM SKC=



000
FTUS41 KCLE 231700
TAFFDY
TAF
KFDY 231722Z 2318/2418 36011KT P6SM SKC
     FM240000 VRB03KT P6SM SKC
     FM241400 14010KT P6SM SCT100 BKN250=



000
FTUS41 KCLE 231700
TAFYNG
TAF
KYNG 231722Z 2318/2418 32011G18KT P6SM OVC020
     FM232000 33011KT P6SM SCT025
      TEMPO 2320/2322 BKN025
     FM240000 VRB03KT P6SM SKC
     FM241500 02007KT P6SM SCT250=



000
FTUS41 KCLE 231700
TAFTOL
TAF
KTOL 231722Z 2318/2418 36012G18KT P6SM SKC
     FM240000 VRB03KT P6SM SKC
     FM241400 12008KT P6SM SCT100 BKN250=



000
FTUS41 KCLE 231700
TAFCAK
TAF
KCAK 231722Z 2318/2418 34012KT P6SM OVC022
     FM232000 33011KT P6SM SCT025
      TEMPO 2320/2322 BKN025
     FM240000 VRB03KT P6SM SKC
     FM241500 02007KT P6SM SCT250=



000
FTUS41 KCLE 231700
TAFMFD
TAF
KMFD 231722Z 2318/2418 31011KT P6SM OVC025
     FM232000 33012G18KT P6SM SKC
     FM240000 VRB03KT P6SM SKC
     FM241400 14010KT P6SM SCT250=



000
FTUS41 KCLE 231700
TAFCLE
TAF
KCLE 231722Z 2318/2424 34011G16KT P6SM BKN025
     FM231900 34011G16KT P6SM SCT025
      TEMPO 2319/2320 BKN025
     FM232000 36008KT P6SM SKC
     FM240100 VRB03KT P6SM SKC
     FM241500 02007KT P6SM SCT250=



000
FTUS41 KCLE 231600 AAB
TAFYNG
TAF AMD
KYNG 231606Z 2316/2412 30011G18KT P6SM OVC015
     FM232100 32012G20KT P6SM SCT040
     FM232300 34008KT P6SM SCT250
     FM240500 VRB03KT P6SM SCT100 BKN250=



000
FTUS41 KCLE 231600 AAB
TAFFDY
TAF AMD
KFDY 231605Z 2316/2412 36008KT P6SM SCT025
     FM232200 02008KT P6SM SCT250
     FM240200 VRB03KT P6SM SCT100 BKN250=



000
FTUS41 KCLE 231600 AAB
TAFMFD
TAF AMD
KMFD 231605Z 2316/2412 31011KT P6SM OVC025
     FM232000 33012G18KT P6SM SKC
     FM232300 01005KT P6SM SCT250
     FM240300 VRB03KT P6SM SCT100 BKN250=



000
FTUS41 KCLE 231500 AAA
TAFCLE
TAF AMD
KCLE 231516Z 2315/2418 34012KT P6SM OVC020
     FM231700 34012KT P6SM SCT025 BKN035
      TEMPO 2317/2319 BKN025
     FM231900 36008KT P6SM SCT250
     FM240300 VRB03KT P6SM SCT100 BKN250=



000
FTUS41 KCLE 231400 AAC
TAFTOL
TAF AMD
KTOL 231418Z 2314/2412 35012G18KT P6SM BKN025
      TEMPO 2314/2315 SCT025
     FM231500 36012G18KT P6SM SKC
     FM232200 08006KT P6SM SCT250
     FM240200 VRB03KT P6SM SCT100 BKN250=



000
FTUS41 KCLE 231300 AAA
TAFFDY
TAF AMD
KFDY 231328Z 2313/2412 35008KT P6SM BKN025
      TEMPO 2313/2315 SCT025
     FM231500 35010G18KT P6SM SCT025
     FM232200 02008KT P6SM SCT250
     FM240200 VRB03KT P6SM SCT100 BKN250=



000
FTUS41 KCLE 231200 AAB
TAFTOL
TAF AMD
KTOL 231245Z 2313/2412 35012KT P6SM BKN025
      TEMPO 2313/2314 SCT025
     FM231400 36012G18KT P6SM SKC
     FM232200 08006KT P6SM SCT250
     FM240200 VRB03KT P6SM SCT100 BKN250=



000
FTUS41 KCLE 231200 AAA
TAFERI
TAF AMD
KERI 231227Z 2312/2412 29010G18KT P6SM VCSH OVC018
     FM231500 30011G18KT P6SM VCSH OVC025
     FM231900 32014G22KT P6SM SCT045
     FM232300 32006KT P6SM SCT250=



000
FTUS41 KCLE 231200 AAA
TAFYNG
TAF AMD
KYNG 231226Z 2312/2412 30014G20KT P6SM OVC015
     FM231600 32012G20KT P6SM SCT015 OVC025
      TEMPO 2316/2320 SCT025 BKN035
     FM232000 32012G20KT P6SM SCT040
     FM232300 34008KT P6SM SCT250
     FM240500 VRB03KT P6SM SCT100 BKN250=



000
FTUS41 KCLE 231200 AAA
TAFCAK
TAF AMD
KCAK 231225Z 2312/2412 34010KT P6SM OVC025
      TEMPO 2316/2318 SCT025 BKN035
     FM231800 33012G20KT P6SM SCT045
     FM232300 36006KT P6SM SCT250
     FM240400 VRB03KT P6SM SCT100 BKN250=



000
FTUS41 KCLE 231200 AAA
TAFCLE
TAF AMD
KCLE 231223Z 2312/2418 34014KT P6SM OVC022
     FM231500 33012KT P6SM SCT025 BKN035
      TEMPO 2315/2317 BKN025
     FM231900 36008KT P6SM SCT250
     FM240300 VRB03KT P6SM SCT100 BKN250=



000
FTUS41 KCLE 231200 AAA
TAFMFD
TAF AMD
KMFD 231221Z 2312/2412 31008KT P6SM BKN015 OVC025
      TEMPO 2313/2316 SCT015 BKN025
     FM231600 33010G18KT P6SM SKC
     FM232300 01005KT P6SM SCT250
     FM240300 VRB03KT P6SM SCT100 BKN250=



000
FTUS41 KCLE 231200 AAA
TAFTOL
TAF AMD
KTOL 231219Z 2312/2412 35012KT P6SM BKN025
      TEMPO 2314/2315 SCT025
     FM231500 36012G18KT P6SM SKC
     FM232200 08006KT P6SM SCT250
     FM240200 VRB03KT P6SM SCT100 BKN250=



000
FTUS41 KCLE 231100
TAFCAK
TAF
KCAK 231126Z 2312/2412 34010G18KT P6SM BKN025 OVC035
      TEMPO 2313/2317 SCT025 BKN035
     FM231700 33012G20KT P6SM SCT045
     FM232300 36006KT P6SM SCT250
     FM240400 VRB03KT P6SM SCT100 BKN250=



000
FTUS41 KCLE 231100
TAFTOL
TAF
KTOL 231126Z 2312/2412 33008KT P6SM BKN025
      TEMPO 2313/2314 SCT025
     FM231400 36010G18KT P6SM SKC
     FM232200 08006KT P6SM SCT250
     FM240200 VRB03KT P6SM SCT100 BKN250=



000
FTUS41 KCLE 231100
TAFYNG
TAF
KYNG 231126Z 2312/2412 30010G18KT P6SM VCSH BKN015 OVC025
     FM231400 32012G20KT P6SM SCT015 OVC025
      TEMPO 2316/2319 SCT025 BKN035
     FM231900 32012G20KT P6SM SCT040
     FM232300 34008KT P6SM SCT250
     FM240500 VRB03KT P6SM SCT100 BKN250=



000
FTUS41 KCLE 231100
TAFERI
TAF
KERI 231126Z 2312/2412 29010G18KT P6SM VCSH BKN015 OVC025
      TEMPO 2314/2317 SCT015 OVC025
     FM231700 32014G22KT P6SM SCT045
     FM232300 32006KT P6SM SCT250=



000
FTUS41 KCLE 231100
TAFMFD
TAF
KMFD 231126Z 2312/2412 30008KT P6SM BKN015 OVC025
      TEMPO 2313/2315 SCT025 BKN035
     FM231500 33010G18KT P6SM SKC
     FM232300 01005KT P6SM SCT250
     FM240300 VRB03KT P6SM SCT100 BKN250=



000
FTUS41 KCLE 231100
TAFCLE
TAF
KCLE 231126Z 2312/2418 34010G18KT P6SM BKN025 OVC035
      TEMPO 2313/2315 SCT025 BKN035
     FM231500 33012G20KT P6SM SCT045
     FM232300 36008KT P6SM SCT250
     FM240300 VRB03KT P6SM SCT100 BKN250=



000
FTUS41 KCLE 231100
TAFFDY
TAF
KFDY 231126Z 2312/2412 33008KT P6SM SCT025
      TEMPO 2312/2314 BKN025
     FM231400 35010G18KT P6SM SKC
     FM232200 02008KT P6SM SCT250
     FM240200 VRB03KT P6SM SCT100 BKN250=



000
FTUS41 KCLE 231000 AAA
TAFYNG
TAF AMD
KYNG 231012Z 2310/2406 30010G18KT P6SM VCSH BKN015 OVC025
     FM231300 32012G20KT P6SM SCT015 OVC025
     FM231900 32012G20KT P6SM SCT045
     FM232300 34008KT P6SM SCT250
     FM240500 VRB03KT P6SM SCT100 BKN250=



000
FTUS41 KCLE 231000 AAA
TAFCAK
TAF AMD
KCAK 231011Z 2310/2406 34010G18KT P6SM BKN025 OVC035
      TEMPO 2313/2317 SCT025 BKN035
     FM231700 33012G20KT P6SM SCT045
     FM232300 36006KT P6SM SCT250
     FM240400 VRB03KT P6SM SCT100 BKN250=



000
FTUS41 KCLE 231000 AAA
TAFMFD
TAF AMD
KMFD 231010Z 2310/2406 30008KT P6SM BKN025 OVC035
      TEMPO 2312/2315 SCT025 BKN035
     FM231500 33010G18KT P6SM SKC
     FM232300 01005KT P6SM SCT250
     FM240300 VRB03KT P6SM SCT100 BKN250=



000
FTUS41 KCLE 230900 AAA
TAFFDY
TAF AMD
KFDY 230944Z 2310/2406 33008KT P6SM SCT025
      TEMPO 2311/2314 BKN025
     FM231400 35010G18KT P6SM SKC
     FM232200 02008KT P6SM SCT250
     FM240200 VRB03KT P6SM SCT100 BKN250=



000
FTUS41 KCLE 230900 AAA
TAFTOL
TAF AMD
KTOL 230943Z 2310/2406 33008KT P6SM SCT025
      TEMPO 2310/2313 BKN025
     FM231300 36010G18KT P6SM SKC
     FM232200 08006KT P6SM SCT250
     FM240200 VRB03KT P6SM SCT100 BKN250=



000
FTUS41 KCLE 230800 AAA
TAFCLE
TAF AMD
KCLE 230853Z 2309/2412 34010G18KT P6SM BKN025 OVC035
      TEMPO 2312/2316 SCT028 BKN035
     FM231600 33012G20KT P6SM SCT045
     FM232300 36008KT P6SM SCT250
     FM240300 VRB03KT P6SM SCT100 BKN250=



000
FTUS41 KCLE 230500
TAFYNG
TAF
KYNG 230526Z 2306/2406 30010G18KT P6SM VCSH SCT015 OVC025
      TEMPO 2306/2310 -SHRA OVC015
     FM231300 32012G20KT P6SM SCT015 OVC025
     FM231900 32012G20KT P6SM SCT045
     FM232300 34008KT P6SM SCT250
     FM240500 VRB03KT P6SM SCT100 BKN250=



000
FTUS41 KCLE 230500
TAFMFD
TAF
KMFD 230526Z 2306/2406 33010G18KT P6SM SCT026 OVC035
      TEMPO 2306/2310 BKN026
     FM231500 33010G18KT P6SM SKC
     FM232300 01005KT P6SM SCT250
     FM240300 VRB03KT P6SM SCT100 BKN250=



000
FTUS41 KCLE 230500
TAFTOL
TAF
KTOL 230526Z 2306/2406 33010KT P6SM SKC
     FM231300 36010G18KT P6SM SKC
     FM232200 08006KT P6SM SCT250
     FM240200 VRB03KT P6SM SCT100 BKN250=



000
FTUS41 KCLE 230500
TAFFDY
TAF
KFDY 230526Z 2306/2406 33008KT P6SM SKC
     FM231300 35010G18KT P6SM SKC
     FM232200 02008KT P6SM SCT250
     FM240200 VRB03KT P6SM SCT100 BKN250=



000
FTUS41 KCLE 230500
TAFERI
TAF
KERI 230526Z 2306/2406 28010G18KT P6SM VCSH SCT009 OVC025
      TEMPO 2308/2311 -SHRA BKN009 OVC015
     FM231100 32012G20KT P6SM SCT025 OVC035
     FM231700 30014G21KT P6SM SCT045
     FM232300 32006KT P6SM SCT250=



000
FTUS41 KCLE 230500
TAFCLE
TAF
KCLE 230526Z 2306/2412 34010G18KT P6SM SCT028 OVC035
      TEMPO 2306/2309 BKN028
     FM231600 33012G20KT P6SM SCT045
     FM232300 36008KT P6SM SCT250
     FM240300 VRB03KT P6SM SCT100 BKN250=



000
FTUS41 KCLE 230500
TAFCAK
TAF
KCAK 230526Z 2306/2406 33010G18KT P6SM SCT028 OVC035
      TEMPO 2306/2310 OVC028
     FM231700 33012G20KT P6SM SCT045
     FM232300 36006KT P6SM SCT250
     FM240400 VRB03KT P6SM SCT100 BKN250=



000
FTUS41 KCLE 230400 AAA
TAFCAK
TAF AMD
KCAK 230455Z 2305/2324 33010G18KT P6SM SCT025 OVC035
      TEMPO 2305/2309 OVC025
     FM231300 33010G18KT P6SM SCT035
     FM231600 34012KT P6SM SKC=



000
FTUS41 KCLE 230400 AAA
TAFCLE
TAF AMD
KCLE 230454Z 2305/2406 32010G18KT P6SM SCT025 OVC035
      TEMPO 2305/2309 BKN025
     FM231300 33010G18KT P6SM SCT050
     FM231600 34012KT P6SM SKC=



000
FTUS41 KCLE 230300 AAA
TAFERI
TAF AMD
KERI 230337Z 2304/2324 30012KT P6SM -SHRA SCT008 OVC015
      TEMPO 2304/2307 4SM -SHRA OVC008
     FM230700 32015G25KT P6SM OVC025
     FM231300 32015G25KT P6SM BKN035
     FM231800 34012G20KT P6SM SCT035=



000
FTUS41 KCLE 230300 AAA
TAFYNG
TAF AMD
KYNG 230336Z 2304/2324 31012KT P6SM OVC025
      TEMPO 2304/2308 -SHRA OVC015
     FM231300 32012KT P6SM BKN035
     FM231600 34012G20KT P6SM SCT035=



000
FTUS41 KCLE 230200 AAA
TAFCLE
TAF AMD
KCLE 230252Z 2303/2406 31010G18KT P6SM VCSH OVC035
     FM230700 31010KT P6SM BKN050
     FM231300 33010G18KT P6SM SCT050
     FM231600 34012KT P6SM SKC=



000
FTUS41 KCLE 222300
TAFERI
TAF
KERI 222333Z 2300/2324 26010G18KT P6SM BKN035
     FM230200 31012KT P6SM -SHRA OVC025
     FM230700 32015G25KT P6SM OVC025
     FM231300 32015G25KT P6SM BKN035
     FM231800 34012G20KT P6SM SCT035=



000
FTUS41 KCLE 222300
TAFYNG
TAF
KYNG 222333Z 2300/2324 32012G20KT P6SM BKN035
     FM230400 31012KT P6SM BKN025
      TEMPO 2304/2308 -SHRA
     FM231300 32012KT P6SM BKN035
     FM231600 34012G20KT P6SM SCT035=



000
FTUS41 KCLE 222300
TAFMFD
TAF
KMFD 222333Z 2300/2324 29012G20KT P6SM BKN040
     FM230400 30008KT P6SM SKC
     FM231500 34010KT P6SM SKC=



000
FTUS41 KCLE 222300
TAFCLE
TAF
KCLE 222333Z 2300/2406 32012G20KT P6SM BKN050
     FM230300 31010G18KT P6SM VCSH OVC035
     FM230700 31010KT P6SM BKN050
     FM231300 33010G18KT P6SM SCT050
     FM231600 34012KT P6SM SKC=



000
FTUS41 KCLE 222300
TAFTOL
TAF
KTOL 222333Z 2300/2324 31010G18KT P6SM SKC
     FM231500 35010KT P6SM SKC=



000
FTUS41 KCLE 222300
TAFCAK
TAF
KCAK 222333Z 2300/2324 32012G20KT P6SM BKN050
     FM230300 30010KT P6SM BKN035
     FM231300 33010G18KT P6SM SCT035
     FM231600 34012KT P6SM SKC=



000
FTUS41 KCLE 222300
TAFFDY
TAF
KFDY 222333Z 2300/2324 32015G25KT P6SM SCT050
      TEMPO 2300/2302 BKN050
     FM230300 31010G18KT P6SM SKC
     FM231500 34010KT P6SM SKC=



000
FTUS41 KCLE 222100 AAB
TAFCAK
TAF AMD
KCAK 222117Z 2221/2318 32012G20KT P6SM BKN035
     FM230400 31012KT 6SM BR OVC025
      TEMPO 2304/2308 4SM -RA BR
     FM230800 32011KT 6SM HZ BKN006 OVC035
     FM231300 32012KT P6SM SCT012 BKN025
     FM231600 32015G25KT P6SM SCT050=



000
FTUS41 KCLE 222100 AAA
TAFERI
TAF AMD
KERI 222106Z 2221/2318 26010G18KT P6SM BKN035
     FM230200 30012G20KT 6SM -SHRA OVC025
     FM230600 31012G20KT P6SM SCT008 OVC012
      TEMPO 2306/2310 BKN008
     FM231000 31011KT P6SM OVC012
     FM231400 31012KT P6SM BKN025
     FM231600 32012G20KT P6SM SCT050=



000
FTUS41 KCLE 222000 AAD
TAFCLE
TAF AMD
KCLE 222056Z 2221/2324 34012G22KT P6SM SCT040
     FM230000 33010KT P6SM BKN040
     FM230800 34011KT 6SM BR BKN025
     FM231300 33014G20KT P6SM SCT012 BKN035
     FM231600 34015G25KT P6SM SCT250=



000
FTUS41 KCLE 221900 AAC
TAFCLE
TAF AMD
KCLE 221953Z 2220/2324 34012KT P6SM SCT045
     FM230000 33011KT P6SM OVC045
     FM230800 34011KT 6SM BR BKN025
     FM231300 33014G20KT P6SM SCT012 BKN035
     FM231600 34015G25KT P6SM SCT250=



000
FTUS41 KCLE 221900 AAA
TAFCAK
TAF AMD
KCAK 221903Z 2219/2318 32014G22KT P6SM OVC012
     FM222200 30012KT P6SM SCT012 BKN035
      TEMPO 2300/2304 BKN012
     FM230400 31012KT 6SM BR SCT006 OVC012
      TEMPO 2304/2308 4SM -RA BR BKN006
     FM230800 32011KT 6SM HZ BKN006 OVC035
     FM231300 32012KT P6SM SCT012 BKN025
     FM231600 32015G25KT P6SM SCT050=



000
FTUS41 KCLE 221900 AAB
TAFCLE
TAF AMD
KCLE 221902Z 2219/2324 33012KT P6SM SCT008 BKN035
      TEMPO 2219/2221 5SM HZ BKN008
     FM230300 33011KT 6SM BR SCT008 OVC012
      TEMPO 2304/2308 OVC008
     FM230800 34011KT 6SM BR BKN008
     FM231300 33014G20KT P6SM SCT012 BKN035
     FM231600 34015G25KT P6SM SCT250=



000
FTUS41 KCLE 221800 AAA
TAFCLE
TAF AMD
KCLE 221816Z 2218/2324 34008KT 3SM BR OVC004
      TEMPO 2218/2220 5SM BR OVC008
     FM222000 33012KT P6SM SCT006 BKN035
      TEMPO 2220/2224 5SM HZ BKN006
     FM230300 33011KT 6SM BR SCT008 OVC012
      TEMPO 2304/2308 OVC008
     FM230800 34011KT 6SM BR BKN008
     FM231300 33014G20KT P6SM SCT012 BKN035
     FM231600 34015G25KT P6SM SCT250=



000
FTUS41 KCLE 221700 CCA
TAFCLE
TAF COR
KCLE 221721Z 2218/2324 34008KT 3/4SM BR OVC003
      TEMPO 2218/2220 2SM BR OVC006
     FM222000 33012KT P6SM SCT006 BKN035
      TEMPO 2220/2224 5SM HZ BKN006
     FM230300 33011KT 6SM BR SCT008 OVC012
      TEMPO 2304/2308 OVC008
     FM230800 34011KT 6SM BR BKN008
     FM231300 33014G20KT P6SM SCT012 BKN035
     FM231600 34015G25KT P6SM SCT250=



000
FTUS41 KCLE 221700
TAFERI
TAF
KERI 221720Z 2218/2318 26011G18KT P6SM SCT015 OVC025
     FM230200 30012G20KT 6SM -SHRA SCT010 OVC025
      TEMPO 2302/2306 4SM -RA BR BKN010
     FM230600 31012G20KT P6SM SCT008 OVC012
      TEMPO 2306/2310 BKN008
     FM231000 31011KT P6SM SCT008 OVC012
      TEMPO 2310/2314 BKN008
     FM231400 31012KT P6SM SCT012 BKN025
     FM231600 32012G20KT P6SM SCT050=



000
FTUS41 KCLE 221700
TAFYNG
TAF
KYNG 221720Z 2218/2318 33012G18KT 4SM -RA BR OVC003
      TEMPO 2218/2220 1SM -RA BR SCT003 OVC012
     FM222000 31012G20KT 5SM BR OVC003
      TEMPO 2220/2224 2SM BR SCT003 OVC012
     FM230000 30012KT 5SM BR SCT012 BKN025
      TEMPO 2300/2304 3SM BR BKN012
     FM230400 31012KT 6SM BR SCT006 OVC012
      TEMPO 2304/2308 4SM -RA BR BKN006
     FM230800 32011KT 6SM HZ BKN006 OVC035
     FM231300 32012KT P6SM SCT012 BKN025
     FM231600 32015G25KT P6SM SCT050=



000
FTUS41 KCLE 221700
TAFFDY
TAF
KFDY 221720Z 2218/2318 32018G26KT P6SM SCT035
      TEMPO 2218/2222 BKN035
     FM230000 32016G24KT P6SM SKC
     FM230300 31008KT P6SM SKC
     FM231500 34010KT P6SM SKC=



000
FTUS41 KCLE 221700
TAFCAK
TAF
KCAK 221720Z 2218/2318 32014G20KT 6SM HZ SCT008 OVC015
      TEMPO 2218/2219 5SM HZ BKN008
     FM221900 32014G22KT 5SM BR OVC008
     FM222200 30012KT 6SM HZ SCT012 BKN035
      TEMPO 2300/2304 BKN012
     FM230400 31012KT 6SM BR SCT006 OVC012
      TEMPO 2304/2308 4SM -RA BR BKN006
     FM230800 32011KT 6SM HZ BKN006 OVC035
     FM231300 32012KT P6SM SCT012 BKN025
     FM231600 32015G25KT P6SM SCT050=



000
FTUS41 KCLE 221700
TAFMFD
TAF
KMFD 221720Z 2218/2318 29014G22KT P6SM SCT025
     FM222100 32014G20KT P6SM SCT040
     FM230200 33010KT P6SM BKN120
     FM230600 33008KT P6SM SKC
     FM231500 34011KT P6SM SCT250=



000
FTUS41 KCLE 221700
TAFCLE
TAF
KCLE 221720Z 2218/2324 34008KT 3/4SM BR OVC003
      TEMPO 2218/2220 2SM BR OVC006
     FM222000 33012KT 5SM HZ SCT006 OVC012
      TEMPO 2220/2224 3SM BR BKN006
     FM230300 33011KT 6SM BR SCT008 OVC012
      TEMPO 2304/2308 OVC008
     FM230800 34011KT 6SM BR BKN008
     FM231300 33014G20KT P6SM SCT012 BKN035
     FM231600 34015G25KT P6SM SCT250=



000
FTUS41 KCLE 221700
TAFTOL
TAF
KTOL 221720Z 2218/2318 32016G24KT P6SM SCT035
      TEMPO 2220/2224 BKN035
     FM230000 31016G24KT P6SM SCT035
     FM230300 31012KT P6SM SKC
     FM231500 34010KT P6SM SKC=



000
FTUS41 KCLE 221600 AAD
TAFCLE
TAF AMD
KCLE 221652Z 2217/2318 34012G20KT 3SM HZ SCT003 OVC010
      TEMPO 2217/2220 3/4SM -RA BR OVC003
     FM222000 32020G28KT 4SM BR BKN012
     FM230100 32012KT P6SM VCSH BKN030=



000
FTUS41 KCLE 221600 CCA
TAFCLE
TAF COR
KCLE 221652Z 2217/2318 34011KT 3SM HZ SCT003 OVC010
      TEMPO 2217/2220 3/4SM BR OVC003
     FM222000 32020G28KT 4SM BR BKN012
     FM230100 32012KT P6SM VCSH BKN030=



000
FTUS41 KCLE 221600 AAC
TAFCLE
TAF AMD
KCLE 221624Z 2216/2318 34012G20KT 3SM HZ SCT003 OVC010
      TEMPO 2216/2218 1 1/2SM -RA BR OVC003
     FM221800 32020G28KT P6SM BKN012
     FM230100 32012KT P6SM VCSH BKN030=



000
FTUS41 KCLE 221600 AAC
TAFCAK
TAF AMD
KCAK 221613Z 2216/2312 29012KT 5SM BR BKN015 OVC035
      TEMPO 2216/2218 1SM TSRAGS OVC006CB
     FM221800 31018G25KT P6SM BKN025
     FM230100 32010KT P6SM BKN030=



000
FTUS41 KCLE 221500 AAA
TAFMFD
TAF AMD
KMFD 221557Z 2216/2312 30012G18KT P6SM SCT060
     FM222000 31015G25KT P6SM BKN025
     FM230100 31010KT P6SM BKN030=



000
FTUS41 KCLE 221500 AAB
TAFCLE
TAF AMD
KCLE 221557Z 2216/2318 34012G20KT 5SM HZ SCT006 OVC015
      TEMPO 2216/2218 2SM -RA BR OVC006
     FM221800 32020G28KT P6SM BKN012
     FM230100 32012KT P6SM VCSH BKN030=



000
FTUS41 KCLE 221500 AAD
TAFERI
TAF AMD
KERI 221524Z 2215/2312 28012G24KT 1/2SM FG OVC002
      TEMPO 2215/2217 3SM -RA BR SCT002 OVC008
     FM221700 29014G25KT 3SM BR BKN015 OVC025
     FM222100 29016G26KT P6SM VCSH BKN025
     FM230200 30014G20KT 6SM -SHRA OVC025=



000
FTUS41 KCLE 221500 AAA
TAFCLE
TAF AMD
KCLE 221521Z 2215/2318 34012G20KT 6SM HZ SCT006 OVC015
      TEMPO 2215/2217 4SM -RA BR OVC006
     FM221700 32014G24KT P6SM BKN020 OVC025
     FM221800 32020G28KT P6SM BKN025
     FM230100 32012KT P6SM VCSH BKN030=



000
FTUS41 KCLE 221500 AAC
TAFYNG
TAF AMD
KYNG 221520Z 2215/2312 28013G24KT 2SM -RA BR BKN008 OVC015
     FM221700 30014G22KT 5SM BR BKN015 OVC025
     FM221900 31016G24KT P6SM BKN025
     FM230100 31010KT P6SM VCSH BKN030=



000
FTUS41 KCLE 221500 AAB
TAFCAK
TAF AMD
KCAK 221519Z 2215/2312 29012KT 4SM BR BKN015 OVC035
     FM221600 30014G20KT 5SM BR BKN015 OVC025
     FM221800 31018G25KT P6SM BKN025
     FM230100 32010KT P6SM BKN030=



000
FTUS41 KCLE 221500 AAA
TAFFDY
TAF AMD
KFDY 221515Z 2215/2312 31018G26KT P6SM SCT028
      TEMPO 2215/2216 BKN028
     FM221900 31020G30KT P6SM BKN035
     FM230100 32011KT P6SM SCT030=



000
FTUS41 KCLE 221500 AAB
TAFTOL
TAF AMD
KTOL 221515Z 2215/2312 32012G22KT P6SM SCT035
     FM221900 33020G28KT P6SM BKN035
     FM230100 32010KT P6SM SCT030=



000
FTUS41 KCLE 221500 AAB
TAFYNG
TAF AMD
KYNG 221506Z 2215/2312 28013G24KT 3SM -RA BR BKN008 OVC015
     FM221700 30014G22KT P6SM BKN015 OVC025
     FM221900 31016G24KT P6SM BKN025
     FM230100 31010KT P6SM VCSH BKN030=



000
FTUS41 KCLE 221500 AAC
TAFERI
TAF AMD
KERI 221505Z 2215/2312 28012G24KT 3/4SM -RA BR OVC002
      TEMPO 2215/2217 3SM -RA BR SCT002 OVC008
     FM221700 29014G25KT P6SM BKN015 OVC025
     FM222100 29016G26KT P6SM VCSH BKN025
     FM230200 30014G20KT 6SM -SHRA OVC025=



000
FTUS41 KCLE 221500 AAB
TAFCLE
TAF AMD
KCLE 221502Z 2215/2318 31012G22KT 6SM BR VCTS BKN015CB OVC025
      TEMPO 2215/2217 3SM -RA BR OVC035
     FM221700 32014G24KT P6SM BKN020 OVC025
     FM221800 32020G28KT P6SM BKN025
     FM230100 32012KT P6SM VCSH BKN030=



000
FTUS41 KCLE 221400 AAB
TAFERI
TAF AMD
KERI 221411Z 2214/2312 28012G23KT 1/4SM -DZ FG VV002 OVC010
      TEMPO 2214/2216 2SM -RA BR SCT004 OVC008
     FM221600 29014G24KT 5SM BR BKN010 OVC025
     FM221700 29014G25KT P6SM BKN015 OVC025
     FM222100 29016G26KT P6SM VCSH BKN025
     FM230200 30014G20KT 6SM -SHRA OVC025=



000
FTUS41 KCLE 221400 AAA
TAFCLE
TAF AMD
KCLE 221406Z 2214/2318 29012G22KT 6SM BR VCSH BKN015 OVC025
     FM221600 29014G24KT P6SM BKN020 OVC025
     FM221800 32020G28KT P6SM BKN025
     FM230100 32012KT P6SM VCSH BKN030=



000
FTUS41 KCLE 221300 AAA
TAFERI
TAF AMD
KERI 221329Z 2213/2312 26012G23KT 2SM -RA BKN004 OVC015
      TEMPO 2213/2215 6SM -RA BR SCT004 OVC008
     FM221500 29014G24KT 5SM BR BKN010 OVC025
     FM221700 29014G25KT P6SM BKN015 OVC025
     FM222100 29016G26KT P6SM VCSH BKN025
     FM230200 30014G20KT 6SM -SHRA OVC025=



000
FTUS41 KCLE 221300 AAA
TAFTOL
TAF AMD
KTOL 221318Z 2213/2312 32014G24KT P6SM BKN035
      TEMPO 2213/2215 BKN015
     FM221600 33020G28KT P6SM BKN035
     FM230100 32010KT P6SM SCT030=



000
FTUS41 KCLE 221300 AAA
TAFYNG
TAF AMD
KYNG 221304Z 2213/2312 25011KT 3SM -RA BR BKN008 OVC015
     FM221500 29012KT 5SM BR BKN010 OVC025
     FM221700 30014KT P6SM BKN015 OVC025
     FM221900 31016G24KT P6SM BKN025
     FM230100 31010KT P6SM VCSH BKN030=



000
FTUS41 KCLE 221100 AAA
TAFCAK
TAF AMD
KCAK 221148Z 2212/2312 24008KT 2SM BR BKN007 OVC016
     FM221300 26012KT 5SM BR BKN008 OVC025
     FM221600 30014G20KT P6SM BKN015 OVC025
     FM221800 31018G25KT P6SM BKN025
     FM230100 32010KT P6SM BKN030=



000
FTUS41 KCLE 221100
TAFYNG
TAF
KYNG 221130Z 2212/2312 23008KT 3SM -RA BR BKN022
     FM221300 26011KT 5SM BR BKN010 OVC025
     FM221600 30014KT P6SM BKN015 OVC025
     FM221900 31016G24KT P6SM BKN025
     FM230100 31010KT P6SM VCSH BKN030=



000
FTUS41 KCLE 221100
TAFMFD
TAF
KMFD 221130Z 2212/2312 26011KT 5SM BR VCSH BKN007 OVC015
     FM221400 30012G18KT P6SM OVC010
     FM221800 31015G25KT P6SM BKN025
     FM230100 31010KT P6SM BKN030=



000
FTUS41 KCLE 221100
TAFCLE
TAF
KCLE 221130Z 2212/2318 26011KT 6SM BR VCSH BKN015 OVC025
     FM221500 29014G20KT P6SM BKN012 OVC025
     FM221800 32020G28KT P6SM BKN025
     FM230100 32012KT P6SM VCSH BKN030=



000
FTUS41 KCLE 221100
TAFCAK
TAF
KCAK 221130Z 2212/2312 24008KT 5SM BR BKN015
     FM221300 26012KT 5SM BR BKN008 OVC025
     FM221600 30014G20KT P6SM BKN015 OVC025
     FM221800 31018G25KT P6SM BKN025
     FM230100 32010KT P6SM BKN030=



000
FTUS41 KCLE 221100
TAFTOL
TAF
KTOL 221130Z 2212/2312 29014KT P6SM BKN012 OVC035
     FM221600 30020G28KT P6SM BKN035
     FM230100 32010KT P6SM SCT030=



000
FTUS41 KCLE 221100
TAFERI
TAF
KERI 221130Z 2212/2312 23008KT 3SM -RA SCT025 OVC040
     FM221300 25011KT 5SM BR BKN010 OVC025
     FM221700 29014G20KT P6SM BKN015 OVC025
     FM222100 29016G26KT P6SM VCSH BKN025
     FM230200 30014G20KT 6SM -SHRA OVC025=



000
FTUS41 KCLE 221100
TAFFDY
TAF
KFDY 221130Z 2212/2312 27012KT 5SM BR SCT007 OVC015
     FM221400 30015KT P6SM BKN012
     FM221600 31018G26KT P6SM BKN025
     FM221900 31020G30KT P6SM BKN035
     FM230100 32011KT P6SM SCT030=



000
FTUS41 KCLE 220900 AAB
TAFFDY
TAF AMD
KFDY 220916Z 2209/2306 26010KT P6SM VCSH SCT018 OVC060
      TEMPO 2209/2211 5SM BR BKN018
     FM221100 27012KT 5SM BR SCT007 BKN012
     FM221300 30014KT P6SM BKN012
     FM221600 31018G26KT P6SM BKN025
     FM221900 31020G30KT P6SM SCT035
     FM230100 32011KT P6SM SCT030=



000
FTUS41 KCLE 220800 AAA
TAFCLE
TAF AMD
KCLE 220836Z 2209/2312 23008KT 6SM -SHRA SCT045 OVC080
      TEMPO 2209/2212 5SM -SHRA BKN025
     FM221200 26011KT 5SM -SHRA BR BKN010 OVC025
     FM221500 30014G20KT P6SM BKN012 OVC025
     FM221800 32020G28KT P6SM BKN025
     FM230100 32012KT P6SM VCSH BKN030=



000
FTUS41 KCLE 220800 AAA
TAFFDY
TAF AMD
KFDY 220834Z 2209/2306 25010KT P6SM VCSH SCT020 OVC060
      TEMPO 2209/2211 5SM BR BKN020
     FM221100 26012KT 5SM BR SCT007 BKN012
     FM221300 30014KT P6SM BKN012
     FM221600 31018G26KT P6SM BKN025
     FM221900 31020G30KT P6SM SCT035
     FM230100 32011KT P6SM SCT030=



000
FTUS41 KCLE 220800 AAA
TAFTOL
TAF AMD
KTOL 220830Z 2209/2306 26010KT P6SM SCT015 OVC070
      TEMPO 2209/2210 5SM -SHRA BR BKN015 OVC040
     FM221000 27012KT 5SM BR BKN008
     FM221200 30014G22KT P6SM BKN012 OVC040
     FM221600 30020G28KT P6SM SCT035
     FM230100 32010KT P6SM SCT030=



000
FTUS41 KCLE 220500
TAFCAK
TAF
KCAK 220533Z 2206/2306 23008KT P6SM VCSH SCT050 OVC110
      TEMPO 2206/2209 5SM -SHRA BKN040
     FM220900 24008KT P6SM -SHRA SCT040 OVC080
      TEMPO 2209/2213 4SM -SHRA BR BKN015
     FM221300 26012KT 5SM -SHRA BR BKN008 OVC025
     FM221600 30014G20KT P6SM BKN015 OVC025
     FM221800 31018G25KT P6SM BKN025
     FM230100 32010KT P6SM BKN030=



000
FTUS41 KCLE 220500
TAFMFD
TAF
KMFD 220533Z 2206/2306 23010KT 6SM -SHRA SCT045 OVC080
      TEMPO 2206/2209 5SM -SHRA BKN040
     FM220900 24009KT 6SM -SHRA SCT030 OVC060
      TEMPO 2209/2211 5SM -SHRA BR BKN015
     FM221100 26011KT 5SM -SHRA BR BKN009 OVC025
     FM221400 30012G18KT P6SM BKN012 OVC040
     FM221800 31015G25KT P6SM BKN025
     FM230100 31010KT P6SM BKN030=



000
FTUS41 KCLE 220500
TAFFDY
TAF
KFDY 220533Z 2206/2306 24009KT P6SM -SHRA SCT045 OVC080
      TEMPO 2207/2209 5SM -SHRA BR BKN025
     FM220900 26012KT 5SM -SHRA BR BKN015 OVC050
     FM221200 30014KT P6SM BKN012 OVC040
     FM221600 31018G26KT P6SM BKN025
     FM221900 31020G30KT P6SM SCT035
     FM230100 32011KT P6SM SCT030=



000
FTUS41 KCLE 220500
TAFERI
TAF
KERI 220533Z 2206/2306 20008KT P6SM VCSH SCT050 BKN110
      TEMPO 2206/2209 5SM -SHRA BKN040
     FM220900 23010KT P6SM -SHRA SCT045 OVC080
      TEMPO 2209/2213 5SM -SHRA BKN018
     FM221300 26012KT 5SM -SHRA BR BKN008 OVC025
     FM221700 29014G20KT P6SM BKN015 OVC025
     FM222100 29016G26KT P6SM VCSH BKN025
     FM230200 30014G20KT 6SM -SHRA OVC025=



000
FTUS41 KCLE 220500
TAFTOL
TAF
KTOL 220533Z 2206/2306 25007KT P6SM -SHRA BKN050 OVC080
      TEMPO 2206/2208 28008KT 5SM -SHRA BR BKN015 OVC050
     FM220800 27012KT 5SM -SHRA BR BKN015 OVC050
     FM221200 30014G22KT P6SM BKN012 OVC040
     FM221600 30020G28KT P6SM SCT035
     FM230100 32010KT P6SM SCT030=



000
FTUS41 KCLE 220500
TAFYNG
TAF
KYNG 220533Z 2206/2306 23008KT P6SM VCSH SCT050 OVC110
      TEMPO 2206/2209 5SM -SHRA BKN040
     FM220900 24008KT P6SM -SHRA SCT040 OVC080
      TEMPO 2209/2213 4SM -SHRA BKN015
     FM221300 26012KT 5SM -SHRA BR BKN008 OVC025
     FM221700 30014G20KT P6SM BKN015 OVC025
     FM221900 31016G24KT P6SM BKN025
     FM230100 31010KT P6SM VCSH BKN030=



000
FTUS41 KCLE 220500
TAFCLE
TAF
KCLE 220533Z 2206/2312 23008KT P6SM -SHRA SCT050 OVC090
      TEMPO 2206/2209 5SM -SHRA BKN040
     FM220900 24009KT 6SM -SHRA SCT045 OVC080
      TEMPO 2209/2211 5SM -SHRA BKN015
     FM221100 26011KT 5SM -SHRA BR BKN009 OVC025
     FM221500 30014G20KT P6SM BKN012 OVC025
     FM221800 32020G28KT P6SM BKN025
     FM230100 32012KT P6SM VCSH BKN030=



000
FTUS41 KCLE 220400 AAA
TAFERI
TAF AMD
KERI 220426Z 2204/2224 19008KT P6SM SCT070 BKN110
     FM220900 22010KT P6SM -SHRA BKN035 OVC060
      TEMPO 2209/2213 5SM -SHRA BKN018
     FM221300 29012KT 5SM -SHRA BR BKN008 OVC025
     FM221600 28014G22KT P6SM OVC012
     FM221900 30015G25KT P6SM BKN030=



000
FTUS41 KCLE 220400 AAA
TAFYNG
TAF AMD
KYNG 220421Z 2204/2224 24009KT P6SM SCT080 OVC150
     FM220900 22006KT P6SM -SHRA BKN035 OVC050
      TEMPO 2209/2213 4SM -SHRA BKN012
     FM221300 27012KT 5SM -SHRA BR BKN008 OVC025
     FM221600 30012G20KT P6SM OVC012
     FM221900 32018G25KT P6SM BKN030=



000
FTUS41 KCLE 220400 AAA
TAFCAK
TAF AMD
KCAK 220418Z 2204/2224 23008KT P6SM VCSH SCT060 OVC120
     FM220900 24008KT P6SM -SHRA BKN035 OVC050
      TEMPO 2209/2213 4SM -SHRA BKN012
     FM221300 27012KT 5SM -SHRA BR BKN008 OVC025
     FM221600 30014G20KT P6SM OVC012
     FM221800 32018G25KT P6SM BKN030=



000
FTUS41 KCLE 220400 AAA
TAFCLE
TAF AMD
KCLE 220415Z 2204/2306 23010KT P6SM SCT080 OVC150
     FM220800 22010KT P6SM -SHRA BKN035 OVC050
      TEMPO 2208/2211 5SM -SHRA OVC012
     FM221100 27012KT 5SM -SHRA BKN008 OVC025
     FM221300 32014G22KT P6SM OVC009
     FM221600 32020G28KT P6SM BKN025
     FM222300 33012G22KT P6SM VCSH BKN035=



000
FTUS41 KCLE 220400 AAA
TAFMFD
TAF AMD
KMFD 220414Z 2204/2224 23008KT P6SM SCT070 OVC110
     FM220600 23010KT P6SM -SHRA OVC050
      TEMPO 2207/2210 5SM -SHRA BR BKN025
     FM221000 28012KT 5SM -SHRA BKN009 OVC025
     FM221500 32012G22KT P6SM OVC012
     FM221800 30015G25KT P6SM BKN030=



000
FTUS41 KCLE 220400 AAA
TAFFDY
TAF AMD
KFDY 220410Z 2204/2224 23009KT P6SM -SHRA SCT045 OVC080
      TEMPO 2206/2208 5SM -SHRA BR BKN025
     FM220800 26012KT P6SM OVC014
     FM221100 30014KT P6SM OVC012
     FM221400 31014G24KT P6SM BKN025
     FM221700 31020G30KT P6SM SCT035=



000
FTUS41 KCLE 220200 AAA
TAFTOL
TAF AMD
KTOL 220220Z 2202/2224 27010G20KT P6SM BKN070 OVC110
     FM220400 26007KT P6SM -SHRA BKN050 OVC080
      TEMPO 2206/2208 28008KT 5SM -SHRA BR BKN014 OVC020
     FM220900 29012KT P6SM OVC015
     FM221200 30014G22KT P6SM BKN025
     FM221600 30020G28KT P6SM SCT035=



000
FTUS41 KCLE 212300
TAFYNG
TAF
KYNG 212340Z 2200/2224 24009KT P6SM SCT080 OVC150
     FM220800 22006KT P6SM -SHRA BKN035 OVC050
      TEMPO 2208/2212 5SM -SHRA OVC012
     FM221200 27012KT P6SM OVC008
     FM221500 30012G20KT P6SM OVC012
     FM221800 32018G25KT P6SM SCT030=



000
FTUS41 KCLE 212300
TAFERI
TAF
KERI 212340Z 2200/2224 21008KT P6SM SCT150 OVC250
     FM220800 23010KT P6SM -SHRA BKN030 OVC060
      TEMPO 2208/2212 5SM -SHRA OVC018
     FM221200 29012KT P6SM OVC015
     FM221600 28015G25KT P6SM OVC015=



000
FTUS41 KCLE 212300
TAFCAK
TAF
KCAK 212340Z 2200/2224 23008KT P6SM SCT080 OVC150
     FM220700 22006KT P6SM -SHRA BKN035 OVC050
      TEMPO 2207/2211 5SM -SHRA OVC012
     FM221100 27012KT P6SM OVC008
     FM221400 30012G20KT P6SM OVC012
     FM221700 32018G25KT P6SM SCT030=



000
FTUS41 KCLE 212300
TAFFDY
TAF
KFDY 212340Z 2200/2224 23010KT P6SM VCSH SCT045 OVC080
     FM220400 23009KT P6SM -SHRA OVC050
      TEMPO 2204/2208 5SM -SHRA BR BKN025
     FM220800 26012KT P6SM OVC014
     FM221100 30014KT P6SM OVC012
     FM221400 31014G24KT P6SM BKN025
     FM221700 31020G30KT P6SM SCT035=



000
FTUS41 KCLE 212300
TAFMFD
TAF
KMFD 212340Z 2200/2224 22008KT P6SM SCT070 OVC110
     FM220600 22010KT P6SM -SHRA OVC050
      TEMPO 2206/2210 5SM -SHRA BR BKN025
     FM221000 28012KT P6SM OVC009
     FM221400 32012G22KT P6SM OVC012
     FM221800 30015G25KT P6SM SCT030=



000
FTUS41 KCLE 212300
TAFTOL
TAF
KTOL 212340Z 2200/2224 24008KT P6SM SCT070 OVC110
     FM220300 24007KT P6SM -SHRA BKN050 OVC080
      TEMPO 2206/2208 28008KT 5SM -SHRA BR BKN014 OVC020
     FM220900 29012KT P6SM OVC015
     FM221200 30014G22KT P6SM BKN025
     FM221600 30020G28KT P6SM SCT035=



000
FTUS41 KCLE 212300
TAFCLE
TAF
KCLE 212340Z 2200/2306 23010KT P6SM SCT080 OVC150
     FM220800 22010KT P6SM -SHRA BKN035 OVC050
      TEMPO 2208/2211 5SM -SHRA OVC012
     FM221100 27012KT P6SM OVC008
     FM221300 32014G22KT P6SM OVC009
     FM221600 32020G28KT P6SM BKN025
     FM222300 33012G22KT P6SM BKN035=



    US Dept of Commerce
    National Oceanic and Atmospheric Administration
    National Weather Service
    1325 East West Highway
    Silver Spring, MD 20910
    Page Author: NWS Internet Services Team
Disclaimer
Information Quality
Credits
Glossary
Privacy Policy
Freedom of Information Act (FOIA)
About Us
Career Opportunities